sensor_id;sensor_type;location;lat;lon;timestamp;P1;durP1;ratioP1;P2;durP2;ratioP2
29214;SDS011;16252;49.816;7.964;2022-11-15T00:00:33;13.13;;;9.07;;
29214;SDS011;16252;49.816;7.964;2022-11-15T00:02:59;17.42;;;12.40;;
29214;SDS011;16252;49.816;7.964;2022-11-15T00:05:24;17.50;;;12.13;;
29214;SDS011;16252;49.816;7.964;2022-11-15T00:07:49;18.60;;;11.55;;
29214;SDS011;16252;49.816;7.964;2022-11-15T00:10:15;16.23;;;11.48;;
29214;SDS011;16252;49.816;7.964;2022-11-15T00:12:40;16.15;;;10.45;;
29214;SDS011;16252;49.816;7.964;2022-11-15T00:15:06;16.35;;;10.48;;
29214;SDS011;16252;49.816;7.964;2022-11-15T00:17:32;15.93;;;10.20;;
29214;SDS011;16252;49.816;7.964;2022-11-15T00:19:57;17.13;;;11.38;;
29214;SDS011;16252;49.816;7.964;2022-11-15T00:22:22;17.13;;;11.50;;
29214;SDS011;16252;49.816;7.964;2022-11-15T00:24:48;17.27;;;11.88;;
29214;SDS011;16252;49.816;7.964;2022-11-15T00:27:13;16.85;;;10.98;;
29214;SDS011;16252;49.816;7.964;2022-11-15T00:29:38;15.63;;;10.77;;
29214;SDS011;16252;49.816;7.964;2022-11-15T00:32:08;16.80;;;9.70;;
29214;SDS011;16252;49.816;7.964;2022-11-15T00:34:36;15.38;;;10.07;;
29214;SDS011;16252;49.816;7.964;2022-11-15T00:37:02;14.13;;;9.23;;
29214;SDS011;16252;49.816;7.964;2022-11-15T00:39:27;10.90;;;8.02;;
29214;SDS011;16252;49.816;7.964;2022-11-15T00:41:52;23.45;;;12.35;;
29214;SDS011;16252;49.816;7.964;2022-11-15T00:44:18;23.70;;;13.00;;
29214;SDS011;16252;49.816;7.964;2022-11-15T00:46:43;25.55;;;15.65;;
29214;SDS011;16252;49.816;7.964;2022-11-15T00:49:08;20.08;;;13.50;;
29214;SDS011;16252;49.816;7.964;2022-11-15T00:51:34;19.27;;;12.52;;
29214;SDS011;16252;49.816;7.964;2022-11-15T00:53:59;18.52;;;12.60;;
29214;SDS011;16252;49.816;7.964;2022-11-15T00:56:24;22.40;;;13.98;;
29214;SDS011;16252;49.816;7.964;2022-11-15T00:58:49;20.08;;;13.05;;
29214;SDS011;16252;49.816;7.964;2022-11-15T01:01:15;16.45;;;11.75;;
29214;SDS011;16252;49.816;7.964;2022-11-15T01:03:41;20.73;;;12.27;;
29214;SDS011;16252;49.816;7.964;2022-11-15T01:06:07;18.25;;;11.73;;
29214;SDS011;16252;49.816;7.964;2022-11-15T01:08:33;17.50;;;11.18;;
29214;SDS011;16252;49.816;7.964;2022-11-15T01:11:03;14.20;;;10.43;;
29214;SDS011;16252;49.816;7.964;2022-11-15T01:13:31;17.65;;;11.13;;
29214;SDS011;16252;49.816;7.964;2022-11-15T01:15:57;15.75;;;9.55;;
29214;SDS011;16252;49.816;7.964;2022-11-15T01:18:22;16.20;;;10.65;;
29214;SDS011;16252;49.816;7.964;2022-11-15T01:20:48;14.02;;;10.05;;
29214;SDS011;16252;49.816;7.964;2022-11-15T01:23:13;16.10;;;9.20;;
29214;SDS011;16252;49.816;7.964;2022-11-15T01:25:39;13.07;;;8.40;;
29214;SDS011;16252;49.816;7.964;2022-11-15T01:28:04;12.85;;;8.85;;
29214;SDS011;16252;49.816;7.964;2022-11-15T01:30:30;12.05;;;8.07;;
29214;SDS011;16252;49.816;7.964;2022-11-15T01:32:55;13.00;;;8.43;;
29214;SDS011;16252;49.816;7.964;2022-11-15T01:35:20;12.65;;;8.73;;
29214;SDS011;16252;49.816;7.964;2022-11-15T01:37:46;13.25;;;8.70;;
29214;SDS011;16252;49.816;7.964;2022-11-15T01:40:11;12.88;;;8.25;;
29214;SDS011;16252;49.816;7.964;2022-11-15T01:42:36;11.55;;;8.27;;
29214;SDS011;16252;49.816;7.964;2022-11-15T01:45:01;14.55;;;9.23;;
29214;SDS011;16252;49.816;7.964;2022-11-15T01:47:28;12.65;;;8.48;;
29214;SDS011;16252;49.816;7.964;2022-11-15T01:49:59;10.32;;;7.75;;
29214;SDS011;16252;49.816;7.964;2022-11-15T01:52:31;12.43;;;8.45;;
29214;SDS011;16252;49.816;7.964;2022-11-15T01:57:30;12.00;;;7.90;;
29214;SDS011;16252;49.816;7.964;2022-11-15T01:59:56;12.82;;;8.20;;
29214;SDS011;16252;49.816;7.964;2022-11-15T02:02:23;11.68;;;7.95;;
29214;SDS011;16252;49.816;7.964;2022-11-15T02:04:48;11.55;;;8.18;;
29214;SDS011;16252;49.816;7.964;2022-11-15T02:07:17;8.60;;;6.18;;
29214;SDS011;16252;49.816;7.964;2022-11-15T02:09:45;9.57;;;7.63;;
29214;SDS011;16252;49.816;7.964;2022-11-15T02:12:11;13.30;;;7.10;;
29214;SDS011;16252;49.816;7.964;2022-11-15T02:14:44;10.70;;;7.47;;
29214;SDS011;16252;49.816;7.964;2022-11-15T02:36:49;13.05;;;8.52;;
29214;SDS011;16252;49.816;7.964;2022-11-15T02:39:20;11.25;;;7.60;;
29214;SDS011;16252;49.816;7.964;2022-11-15T02:41:55;11.70;;;7.65;;
29214;SDS011;16252;49.816;7.964;2022-11-15T02:44:40;12.07;;;8.23;;
29214;SDS011;16252;49.816;7.964;2022-11-15T02:47:11;11.25;;;7.18;;
29214;SDS011;16252;49.816;7.964;2022-11-15T02:49:48;9.68;;;6.55;;
29214;SDS011;16252;49.816;7.964;2022-11-15T02:52:17;12.38;;;7.35;;
29214;SDS011;16252;49.816;7.964;2022-11-15T02:54:52;11.93;;;7.47;;
29214;SDS011;16252;49.816;7.964;2022-11-15T02:57:19;9.40;;;6.55;;
29214;SDS011;16252;49.816;7.964;2022-11-15T03:05:37;10.27;;;7.30;;
29214;SDS011;16252;49.816;7.964;2022-11-15T03:08:15;10.88;;;6.90;;
29214;SDS011;16252;49.816;7.964;2022-11-15T03:10:54;9.20;;;6.60;;
29214;SDS011;16252;49.816;7.964;2022-11-15T03:13:25;8.98;;;6.13;;
29214;SDS011;16252;49.816;7.964;2022-11-15T03:16:03;9.77;;;7.10;;
29214;SDS011;16252;49.816;7.964;2022-11-15T03:18:41;10.20;;;7.53;;
29214;SDS011;16252;49.816;7.964;2022-11-15T03:21:19;9.88;;;6.68;;
29214;SDS011;16252;49.816;7.964;2022-11-15T03:23:47;9.95;;;7.35;;
29214;SDS011;16252;49.816;7.964;2022-11-15T03:26:15;10.48;;;6.40;;
29214;SDS011;16252;49.816;7.964;2022-11-15T03:28:51;10.80;;;7.60;;
29214;SDS011;16252;49.816;7.964;2022-11-15T03:31:21;9.70;;;7.03;;
29214;SDS011;16252;49.816;7.964;2022-11-15T03:34:08;8.38;;;6.28;;
29214;SDS011;16252;49.816;7.964;2022-11-15T03:36:37;11.73;;;7.10;;
29214;SDS011;16252;49.816;7.964;2022-11-15T03:39:05;10.50;;;6.78;;
29214;SDS011;16252;49.816;7.964;2022-11-15T03:41:37;11.47;;;7.63;;
29214;SDS011;16252;49.816;7.964;2022-11-15T03:46:51;9.90;;;6.97;;
29214;SDS011;16252;49.816;7.964;2022-11-15T03:49:35;9.82;;;6.75;;
29214;SDS011;16252;49.816;7.964;2022-11-15T03:52:04;9.95;;;6.88;;
29214;SDS011;16252;49.816;7.964;2022-11-15T03:54:30;9.32;;;6.47;;
29214;SDS011;16252;49.816;7.964;2022-11-15T03:56:55;9.27;;;6.32;;
29214;SDS011;16252;49.816;7.964;2022-11-15T03:59:20;9.85;;;7.07;;
29214;SDS011;16252;49.816;7.964;2022-11-15T04:01:46;10.45;;;6.95;;
29214;SDS011;16252;49.816;7.964;2022-11-15T04:04:11;8.98;;;6.88;;
29214;SDS011;16252;49.816;7.964;2022-11-15T04:06:37;8.85;;;5.45;;
29214;SDS011;16252;49.816;7.964;2022-11-15T04:09:02;9.70;;;7.10;;
29214;SDS011;16252;49.816;7.964;2022-11-15T04:11:28;11.02;;;7.47;;
29214;SDS011;16252;49.816;7.964;2022-11-15T04:13:53;11.52;;;7.40;;
29214;SDS011;16252;49.816;7.964;2022-11-15T04:16:18;10.88;;;7.53;;
29214;SDS011;16252;49.816;7.964;2022-11-15T04:18:44;10.63;;;7.38;;
29214;SDS011;16252;49.816;7.964;2022-11-15T04:21:09;11.48;;;7.95;;
29214;SDS011;16252;49.816;7.964;2022-11-15T04:23:53;10.93;;;7.07;;
29214;SDS011;16252;49.816;7.964;2022-11-15T04:26:19;11.63;;;7.13;;
29214;SDS011;16252;49.816;7.964;2022-11-15T04:28:47;14.85;;;8.98;;
29214;SDS011;16252;49.816;7.964;2022-11-15T04:31:31;17.15;;;10.80;;
29214;SDS011;16252;49.816;7.964;2022-11-15T04:33:56;20.02;;;12.20;;
29214;SDS011;16252;49.816;7.964;2022-11-15T04:36:21;22.08;;;12.15;;
29214;SDS011;16252;49.816;7.964;2022-11-15T04:39:05;17.20;;;10.88;;
29214;SDS011;16252;49.816;7.964;2022-11-15T04:41:31;14.75;;;9.38;;
29214;SDS011;16252;49.816;7.964;2022-11-15T04:43:57;13.40;;;8.85;;
29214;SDS011;16252;49.816;7.964;2022-11-15T04:46:22;12.18;;;9.15;;
29214;SDS011;16252;49.816;7.964;2022-11-15T04:48:48;11.50;;;7.90;;
29214;SDS011;16252;49.816;7.964;2022-11-15T04:51:14;14.45;;;9.10;;
29214;SDS011;16252;49.816;7.964;2022-11-15T04:53:39;12.02;;;8.65;;
29214;SDS011;16252;49.816;7.964;2022-11-15T04:56:04;13.93;;;8.57;;
29214;SDS011;16252;49.816;7.964;2022-11-15T04:58:29;14.98;;;9.90;;
29214;SDS011;16252;49.816;7.964;2022-11-15T05:00:55;12.20;;;8.35;;
29214;SDS011;16252;49.816;7.964;2022-11-15T05:03:20;11.05;;;7.57;;
29214;SDS011;16252;49.816;7.964;2022-11-15T05:06:04;9.82;;;6.55;;
29214;SDS011;16252;49.816;7.964;2022-11-15T05:08:30;10.45;;;7.05;;
29214;SDS011;16252;49.816;7.964;2022-11-15T05:10:55;10.60;;;7.75;;
29214;SDS011;16252;49.816;7.964;2022-11-15T05:13:20;12.32;;;8.13;;
29214;SDS011;16252;49.816;7.964;2022-11-15T05:15:46;12.23;;;8.35;;
29214;SDS011;16252;49.816;7.964;2022-11-15T05:18:12;12.40;;;8.20;;
29214;SDS011;16252;49.816;7.964;2022-11-15T05:20:38;11.05;;;7.75;;
29214;SDS011;16252;49.816;7.964;2022-11-15T05:23:03;11.18;;;7.50;;
29214;SDS011;16252;49.816;7.964;2022-11-15T05:25:29;14.10;;;7.80;;
29214;SDS011;16252;49.816;7.964;2022-11-15T05:27:54;12.18;;;7.80;;
29214;SDS011;16252;49.816;7.964;2022-11-15T05:30:19;12.15;;;7.82;;
29214;SDS011;16252;49.816;7.964;2022-11-15T05:32:45;10.55;;;7.55;;
29214;SDS011;16252;49.816;7.964;2022-11-15T05:35:12;10.07;;;6.97;;
29214;SDS011;16252;49.816;7.964;2022-11-15T05:38:01;10.02;;;7.80;;
29214;SDS011;16252;49.816;7.964;2022-11-15T05:40:27;9.98;;;7.20;;
29214;SDS011;16252;49.816;7.964;2022-11-15T05:42:54;13.10;;;7.78;;
29214;SDS011;16252;49.816;7.964;2022-11-15T05:45:20;9.90;;;6.88;;
29214;SDS011;16252;49.816;7.964;2022-11-15T05:47:45;11.73;;;7.28;;
29214;SDS011;16252;49.816;7.964;2022-11-15T05:50:12;7.88;;;6.70;;
29214;SDS011;16252;49.816;7.964;2022-11-15T05:52:40;11.23;;;7.00;;
29214;SDS011;16252;49.816;7.964;2022-11-15T05:55:07;12.35;;;7.22;;
29214;SDS011;16252;49.816;7.964;2022-11-15T05:57:33;11.13;;;7.28;;
29214;SDS011;16252;49.816;7.964;2022-11-15T05:59:59;9.70;;;6.70;;
29214;SDS011;16252;49.816;7.964;2022-11-15T06:02:24;12.90;;;8.30;;
29214;SDS011;16252;49.816;7.964;2022-11-15T06:04:49;9.45;;;6.85;;
29214;SDS011;16252;49.816;7.964;2022-11-15T06:07:15;10.77;;;6.55;;
29214;SDS011;16252;49.816;7.964;2022-11-15T06:09:40;10.00;;;6.97;;
29214;SDS011;16252;49.816;7.964;2022-11-15T06:12:05;9.38;;;6.65;;
29214;SDS011;16252;49.816;7.964;2022-11-15T06:14:31;9.35;;;6.82;;
29214;SDS011;16252;49.816;7.964;2022-11-15T06:16:56;19.42;;;11.90;;
29214;SDS011;16252;49.816;7.964;2022-11-15T06:19:21;16.77;;;11.27;;
29214;SDS011;16252;49.816;7.964;2022-11-15T06:21:47;12.02;;;8.23;;
29214;SDS011;16252;49.816;7.964;2022-11-15T06:24:12;13.57;;;9.05;;
29214;SDS011;16252;49.816;7.964;2022-11-15T06:26:37;11.52;;;8.98;;
29214;SDS011;16252;49.816;7.964;2022-11-15T06:29:03;12.68;;;8.35;;
29214;SDS011;16252;49.816;7.964;2022-11-15T06:31:29;11.88;;;7.78;;
29214;SDS011;16252;49.816;7.964;2022-11-15T06:33:54;13.45;;;7.80;;
29214;SDS011;16252;49.816;7.964;2022-11-15T06:36:20;11.40;;;7.10;;
29214;SDS011;16252;49.816;7.964;2022-11-15T06:38:45;9.25;;;6.90;;
29214;SDS011;16252;49.816;7.964;2022-11-15T06:41:11;10.60;;;6.95;;
29214;SDS011;16252;49.816;7.964;2022-11-15T06:43:38;11.93;;;7.15;;
29214;SDS011;16252;49.816;7.964;2022-11-15T06:46:04;12.93;;;8.85;;
29214;SDS011;16252;49.816;7.964;2022-11-15T06:48:31;11.65;;;8.10;;
29214;SDS011;16252;49.816;7.964;2022-11-15T06:50:58;14.18;;;9.07;;
29214;SDS011;16252;49.816;7.964;2022-11-15T06:53:25;13.32;;;8.90;;
29214;SDS011;16252;49.816;7.964;2022-11-15T06:55:51;13.20;;;8.68;;
29214;SDS011;16252;49.816;7.964;2022-11-15T06:58:17;16.35;;;9.60;;
29214;SDS011;16252;49.816;7.964;2022-11-15T07:00:42;11.90;;;9.18;;
29214;SDS011;16252;49.816;7.964;2022-11-15T07:03:08;15.15;;;10.27;;
29214;SDS011;16252;49.816;7.964;2022-11-15T07:05:34;14.57;;;9.88;;
29214;SDS011;16252;49.816;7.964;2022-11-15T07:08:00;13.63;;;9.98;;
29214;SDS011;16252;49.816;7.964;2022-11-15T07:10:25;16.15;;;11.95;;
29214;SDS011;16252;49.816;7.964;2022-11-15T07:12:51;14.93;;;10.65;;
29214;SDS011;16252;49.816;7.964;2022-11-15T07:15:18;15.93;;;10.52;;
29214;SDS011;16252;49.816;7.964;2022-11-15T07:17:46;20.17;;;12.77;;
29214;SDS011;16252;49.816;7.964;2022-11-15T07:20:12;20.27;;;13.50;;
29214;SDS011;16252;49.816;7.964;2022-11-15T07:22:38;22.35;;;14.70;;
29214;SDS011;16252;49.816;7.964;2022-11-15T07:25:04;22.65;;;15.25;;
29214;SDS011;16252;49.816;7.964;2022-11-15T07:27:29;34.95;;;19.27;;
29214;SDS011;16252;49.816;7.964;2022-11-15T07:29:54;31.33;;;20.17;;
29214;SDS011;16252;49.816;7.964;2022-11-15T07:32:20;40.20;;;22.90;;
29214;SDS011;16252;49.816;7.964;2022-11-15T07:34:45;45.10;;;23.95;;
29214;SDS011;16252;49.816;7.964;2022-11-15T07:37:11;56.75;;;31.42;;
29214;SDS011;16252;49.816;7.964;2022-11-15T07:39:37;49.95;;;27.73;;
29214;SDS011;16252;49.816;7.964;2022-11-15T07:42:02;52.17;;;30.52;;
29214;SDS011;16252;49.816;7.964;2022-11-15T07:44:46;50.40;;;27.92;;
29214;SDS011;16252;49.816;7.964;2022-11-15T07:47:12;58.28;;;32.35;;
29214;SDS011;16252;49.816;7.964;2022-11-15T07:49:37;55.60;;;32.42;;
29214;SDS011;16252;49.816;7.964;2022-11-15T07:52:02;56.97;;;30.95;;
29214;SDS011;16252;49.816;7.964;2022-11-15T07:54:28;46.22;;;27.00;;
29214;SDS011;16252;49.816;7.964;2022-11-15T07:56:53;33.75;;;19.70;;
29214;SDS011;16252;49.816;7.964;2022-11-15T07:59:18;23.40;;;15.10;;
29214;SDS011;16252;49.816;7.964;2022-11-15T08:01:44;22.45;;;13.48;;
29214;SDS011;16252;49.816;7.964;2022-11-15T08:04:10;20.50;;;12.40;;
29214;SDS011;16252;49.816;7.964;2022-11-15T08:06:36;19.83;;;12.00;;
29214;SDS011;16252;49.816;7.964;2022-11-15T08:09:01;15.20;;;10.20;;
29214;SDS011;16252;49.816;7.964;2022-11-15T08:11:26;14.55;;;11.55;;
29214;SDS011;16252;49.816;7.964;2022-11-15T08:13:52;17.77;;;12.18;;
29214;SDS011;16252;49.816;7.964;2022-11-15T08:16:17;27.63;;;17.17;;
29214;SDS011;16252;49.816;7.964;2022-11-15T08:18:42;33.00;;;18.85;;
29214;SDS011;16252;49.816;7.964;2022-11-15T08:21:08;26.75;;;18.33;;
29214;SDS011;16252;49.816;7.964;2022-11-15T08:23:34;33.70;;;21.00;;
29214;SDS011;16252;49.816;7.964;2022-11-15T08:26:03;28.67;;;19.63;;
29214;SDS011;16252;49.816;7.964;2022-11-15T08:28:29;30.40;;;18.92;;
29214;SDS011;16252;49.816;7.964;2022-11-15T08:30:55;30.63;;;20.13;;
29214;SDS011;16252;49.816;7.964;2022-11-15T08:33:21;25.55;;;19.77;;
29214;SDS011;16252;49.816;7.964;2022-11-15T08:35:46;31.13;;;20.60;;
29214;SDS011;16252;49.816;7.964;2022-11-15T08:38:12;25.75;;;19.20;;
29214;SDS011;16252;49.816;7.964;2022-11-15T08:40:37;22.92;;;16.00;;
29214;SDS011;16252;49.816;7.964;2022-11-15T08:43:03;22.20;;;15.40;;
29214;SDS011;16252;49.816;7.964;2022-11-15T08:45:29;20.48;;;14.52;;
29214;SDS011;16252;49.816;7.964;2022-11-15T08:47:55;22.80;;;14.98;;
29214;SDS011;16252;49.816;7.964;2022-11-15T08:50:21;20.45;;;14.55;;
29214;SDS011;16252;49.816;7.964;2022-11-15T08:52:46;22.70;;;15.50;;
29214;SDS011;16252;49.816;7.964;2022-11-15T08:55:15;22.20;;;14.35;;
29214;SDS011;16252;49.816;7.964;2022-11-15T08:57:40;20.92;;;13.82;;
29214;SDS011;16252;49.816;7.964;2022-11-15T09:00:05;19.33;;;13.95;;
29214;SDS011;16252;49.816;7.964;2022-11-15T09:02:31;17.88;;;11.90;;
29214;SDS011;16252;49.816;7.964;2022-11-15T09:04:56;17.20;;;12.45;;
29214;SDS011;16252;49.816;7.964;2022-11-15T09:07:22;15.63;;;11.13;;
29214;SDS011;16252;49.816;7.964;2022-11-15T09:09:47;16.48;;;11.38;;
29214;SDS011;16252;49.816;7.964;2022-11-15T09:12:12;14.98;;;10.55;;
29214;SDS011;16252;49.816;7.964;2022-11-15T09:14:38;15.70;;;10.90;;
29214;SDS011;16252;49.816;7.964;2022-11-15T09:17:03;12.75;;;8.82;;
29214;SDS011;16252;49.816;7.964;2022-11-15T09:19:28;13.73;;;9.40;;
29214;SDS011;16252;49.816;7.964;2022-11-15T09:21:54;12.88;;;8.88;;
29214;SDS011;16252;49.816;7.964;2022-11-15T09:24:19;13.93;;;9.45;;
29214;SDS011;16252;49.816;7.964;2022-11-15T09:26:45;14.05;;;8.95;;
29214;SDS011;16252;49.816;7.964;2022-11-15T09:29:11;11.32;;;8.45;;
29214;SDS011;16252;49.816;7.964;2022-11-15T09:31:36;10.82;;;7.30;;
29214;SDS011;16252;49.816;7.964;2022-11-15T09:34:01;13.00;;;7.80;;
29214;SDS011;16252;49.816;7.964;2022-11-15T09:36:27;9.38;;;7.25;;
29214;SDS011;16252;49.816;7.964;2022-11-15T09:38:52;9.23;;;6.60;;
29214;SDS011;16252;49.816;7.964;2022-11-15T09:41:25;10.15;;;7.18;;
29214;SDS011;16252;49.816;7.964;2022-11-15T09:49:30;9.75;;;6.70;;
29214;SDS011;16252;49.816;7.964;2022-11-15T09:51:56;12.48;;;7.07;;
29214;SDS011;16252;49.816;7.964;2022-11-15T09:56:56;11.50;;;6.55;;
29214;SDS011;16252;49.816;7.964;2022-11-15T09:59:36;10.43;;;7.53;;
29214;SDS011;16252;49.816;7.964;2022-11-15T10:02:22;8.57;;;5.95;;
29214;SDS011;16252;49.816;7.964;2022-11-15T10:04:58;8.60;;;6.25;;
29214;SDS011;16252;49.816;7.964;2022-11-15T10:07:26;9.18;;;6.47;;
29214;SDS011;16252;49.816;7.964;2022-11-15T10:10:08;9.05;;;6.30;;
29214;SDS011;16252;49.816;7.964;2022-11-15T10:12:44;7.93;;;6.38;;
29214;SDS011;16252;49.816;7.964;2022-11-15T10:15:14;8.88;;;6.65;;
29214;SDS011;16252;49.816;7.964;2022-11-15T10:20:33;12.20;;;7.00;;
29214;SDS011;16252;49.816;7.964;2022-11-15T10:23:10;9.35;;;6.05;;
29214;SDS011;16252;49.816;7.964;2022-11-15T10:25:38;9.02;;;6.03;;
29214;SDS011;16252;49.816;7.964;2022-11-15T10:28:17;8.85;;;6.38;;
29214;SDS011;16252;49.816;7.964;2022-11-15T10:30:52;6.43;;;5.00;;
29214;SDS011;16252;49.816;7.964;2022-11-15T10:41:19;6.28;;;5.18;;
29214;SDS011;16252;49.816;7.964;2022-11-15T10:46:31;7.57;;;5.72;;
29214;SDS011;16252;49.816;7.964;2022-11-15T10:49:10;5.63;;;4.63;;
29214;SDS011;16252;49.816;7.964;2022-11-15T10:51:41;7.20;;;5.25;;
29214;SDS011;16252;49.816;7.964;2022-11-15T10:54:10;6.57;;;5.10;;
29214;SDS011;16252;49.816;7.964;2022-11-15T10:56:38;6.88;;;5.18;;
29214;SDS011;16252;49.816;7.964;2022-11-15T10:59:05;8.27;;;5.75;;
29214;SDS011;16252;49.816;7.964;2022-11-15T11:01:45;6.57;;;5.43;;
29214;SDS011;16252;49.816;7.964;2022-11-15T11:04:12;7.28;;;4.85;;
29214;SDS011;16252;49.816;7.964;2022-11-15T11:06:51;7.32;;;4.75;;
29214;SDS011;16252;49.816;7.964;2022-11-15T11:09:41;5.57;;;3.90;;
29214;SDS011;16252;49.816;7.964;2022-11-15T11:12:09;6.03;;;3.55;;
29214;SDS011;16252;49.816;7.964;2022-11-15T11:14:36;4.25;;;3.35;;
29214;SDS011;16252;49.816;7.964;2022-11-15T11:17:16;4.47;;;3.25;;
29214;SDS011;16252;49.816;7.964;2022-11-15T11:20:02;4.40;;;3.00;;
29214;SDS011;16252;49.816;7.964;2022-11-15T11:22:31;6.05;;;3.40;;
29214;SDS011;16252;49.816;7.964;2022-11-15T11:25:29;4.53;;;3.33;;
29214;SDS011;16252;49.816;7.964;2022-11-15T11:30:50;7.00;;;4.35;;
29214;SDS011;16252;49.816;7.964;2022-11-15T11:36:20;5.38;;;4.18;;
29214;SDS011;16252;49.816;7.964;2022-11-15T11:38:54;4.32;;;3.63;;
29214;SDS011;16252;49.816;7.964;2022-11-15T11:41:46;6.03;;;4.47;;
29214;SDS011;16252;49.816;7.964;2022-11-15T11:51:50;7.57;;;4.47;;
29214;SDS011;16252;49.816;7.964;2022-11-15T11:54:22;5.88;;;4.55;;
29214;SDS011;16252;49.816;7.964;2022-11-15T11:56:58;5.38;;;4.28;;
29214;SDS011;16252;49.816;7.964;2022-11-15T11:59:37;4.85;;;3.85;;
29214;SDS011;16252;49.816;7.964;2022-11-15T12:02:31;5.60;;;3.70;;
29214;SDS011;16252;49.816;7.964;2022-11-15T12:05:04;5.35;;;4.05;;
29214;SDS011;16252;49.816;7.964;2022-11-15T12:07:38;7.53;;;4.50;;
29214;SDS011;16252;49.816;7.964;2022-11-15T12:10:14;5.35;;;4.30;;
29214;SDS011;16252;49.816;7.964;2022-11-15T12:12:44;5.07;;;4.13;;
29214;SDS011;16252;49.816;7.964;2022-11-15T12:15:16;5.32;;;4.35;;
29214;SDS011;16252;49.816;7.964;2022-11-15T12:17:46;5.30;;;3.50;;
29214;SDS011;16252;49.816;7.964;2022-11-15T12:20:17;5.75;;;4.40;;
29214;SDS011;16252;49.816;7.964;2022-11-15T12:22:53;8.80;;;4.53;;
29214;SDS011;16252;49.816;7.964;2022-11-15T12:25:27;8.10;;;4.82;;
29214;SDS011;16252;49.816;7.964;2022-11-15T12:28:06;7.88;;;5.10;;
29214;SDS011;16252;49.816;7.964;2022-11-15T12:30:56;7.07;;;4.68;;
29214;SDS011;16252;49.816;7.964;2022-11-15T12:33:41;5.68;;;4.68;;
29214;SDS011;16252;49.816;7.964;2022-11-15T12:36:10;5.90;;;4.22;;
29214;SDS011;16252;49.816;7.964;2022-11-15T12:38:58;8.13;;;5.22;;
29214;SDS011;16252;49.816;7.964;2022-11-15T12:41:28;6.93;;;4.88;;
29214;SDS011;16252;49.816;7.964;2022-11-15T12:48:56;4.38;;;3.95;;
29214;SDS011;16252;49.816;7.964;2022-11-15T12:51:23;7.47;;;4.63;;
29214;SDS011;16252;49.816;7.964;2022-11-15T13:02:42;5.95;;;3.60;;
29214;SDS011;16252;49.816;7.964;2022-11-15T13:17:57;5.47;;;4.45;;
29214;SDS011;16252;49.816;7.964;2022-11-15T13:20:25;5.50;;;4.40;;
29214;SDS011;16252;49.816;7.964;2022-11-15T13:26:10;5.85;;;3.92;;
29214;SDS011;16252;49.816;7.964;2022-11-15T13:28:42;6.18;;;4.40;;
29214;SDS011;16252;49.816;7.964;2022-11-15T13:33:37;5.85;;;4.32;;
29214;SDS011;16252;49.816;7.964;2022-11-15T13:36:09;7.53;;;4.57;;
29214;SDS011;16252;49.816;7.964;2022-11-15T13:41:30;7.90;;;4.95;;
29214;SDS011;16252;49.816;7.964;2022-11-15T13:44:00;5.95;;;4.20;;
29214;SDS011;16252;49.816;7.964;2022-11-15T13:46:36;7.20;;;4.82;;
29214;SDS011;16252;49.816;7.964;2022-11-15T13:49:08;5.93;;;4.47;;
29214;SDS011;16252;49.816;7.964;2022-11-15T13:54:23;8.27;;;4.15;;
29214;SDS011;16252;49.816;7.964;2022-11-15T13:56:55;5.53;;;4.20;;
29214;SDS011;16252;49.816;7.964;2022-11-15T13:59:27;6.85;;;4.75;;
29214;SDS011;16252;49.816;7.964;2022-11-15T14:01:56;8.23;;;4.45;;
29214;SDS011;16252;49.816;7.964;2022-11-15T14:04:26;7.10;;;4.57;;
29214;SDS011;16252;49.816;7.964;2022-11-15T14:06:58;5.97;;;4.43;;
29214;SDS011;16252;49.816;7.964;2022-11-15T14:09:29;5.25;;;4.43;;
29214;SDS011;16252;49.816;7.964;2022-11-15T14:11:59;6.63;;;4.63;;
29214;SDS011;16252;49.816;7.964;2022-11-15T14:14:28;5.38;;;4.57;;
29214;SDS011;16252;49.816;7.964;2022-11-15T14:16:55;6.35;;;4.22;;
29214;SDS011;16252;49.816;7.964;2022-11-15T14:24:40;6.57;;;4.57;;
29214;SDS011;16252;49.816;7.964;2022-11-15T14:27:21;6.35;;;4.65;;
29214;SDS011;16252;49.816;7.964;2022-11-15T14:29:49;4.78;;;3.92;;
29214;SDS011;16252;49.816;7.964;2022-11-15T14:32:21;5.88;;;4.10;;
29214;SDS011;16252;49.816;7.964;2022-11-15T14:34:55;5.53;;;3.88;;
29214;SDS011;16252;49.816;7.964;2022-11-15T14:37:26;5.90;;;4.22;;
29214;SDS011;16252;49.816;7.964;2022-11-15T14:39:52;4.28;;;3.85;;
29214;SDS011;16252;49.816;7.964;2022-11-15T14:42:18;4.55;;;3.72;;
29214;SDS011;16252;49.816;7.964;2022-11-15T14:44:45;6.18;;;4.85;;
29214;SDS011;16252;49.816;7.964;2022-11-15T14:47:10;5.28;;;4.38;;
29214;SDS011;16252;49.816;7.964;2022-11-15T14:49:35;4.40;;;3.63;;
29214;SDS011;16252;49.816;7.964;2022-11-15T14:52:01;5.93;;;4.13;;
29214;SDS011;16252;49.816;7.964;2022-11-15T14:54:26;6.53;;;4.70;;
29214;SDS011;16252;49.816;7.964;2022-11-15T14:56:51;7.30;;;3.85;;
29214;SDS011;16252;49.816;7.964;2022-11-15T14:59:16;4.32;;;3.60;;
29214;SDS011;16252;49.816;7.964;2022-11-15T15:01:42;7.45;;;4.30;;
29214;SDS011;16252;49.816;7.964;2022-11-15T15:04:08;5.53;;;3.55;;
29214;SDS011;16252;49.816;7.964;2022-11-15T15:06:35;4.85;;;3.33;;
29214;SDS011;16252;49.816;7.964;2022-11-15T15:09:00;4.80;;;3.50;;
29214;SDS011;16252;49.816;7.964;2022-11-15T15:11:26;5.38;;;3.15;;
29214;SDS011;16252;49.816;7.964;2022-11-15T15:13:54;3.88;;;3.13;;
29214;SDS011;16252;49.816;7.964;2022-11-15T15:16:22;4.70;;;3.20;;
29214;SDS011;16252;49.816;7.964;2022-11-15T15:18:47;4.85;;;2.90;;
29214;SDS011;16252;49.816;7.964;2022-11-15T15:21:23;4.13;;;3.30;;
29214;SDS011;16252;49.816;7.964;2022-11-15T15:23:50;4.03;;;3.22;;
29214;SDS011;16252;49.816;7.964;2022-11-15T15:26:15;3.65;;;3.28;;
29214;SDS011;16252;49.816;7.964;2022-11-15T15:28:41;4.25;;;3.47;;
29214;SDS011;16252;49.816;7.964;2022-11-15T15:31:07;5.55;;;3.40;;
29214;SDS011;16252;49.816;7.964;2022-11-15T15:33:34;3.78;;;3.08;;
29214;SDS011;16252;49.816;7.964;2022-11-15T15:35:59;4.43;;;3.33;;
29214;SDS011;16252;49.816;7.964;2022-11-15T15:38:25;4.15;;;3.00;;
29214;SDS011;16252;49.816;7.964;2022-11-15T15:40:50;4.68;;;2.53;;
29214;SDS011;16252;49.816;7.964;2022-11-15T15:43:15;4.15;;;3.08;;
29214;SDS011;16252;49.816;7.964;2022-11-15T15:45:41;4.63;;;3.00;;
29214;SDS011;16252;49.816;7.964;2022-11-15T15:48:10;3.42;;;2.65;;
29214;SDS011;16252;49.816;7.964;2022-11-15T15:50:38;5.30;;;2.80;;
29214;SDS011;16252;49.816;7.964;2022-11-15T15:53:03;3.55;;;2.42;;
29214;SDS011;16252;49.816;7.964;2022-11-15T15:55:30;4.57;;;3.35;;
29214;SDS011;16252;49.816;7.964;2022-11-15T15:57:56;3.03;;;2.58;;
29214;SDS011;16252;49.816;7.964;2022-11-15T16:00:22;5.30;;;3.33;;
29214;SDS011;16252;49.816;7.964;2022-11-15T16:02:49;4.18;;;3.53;;
29214;SDS011;16252;49.816;7.964;2022-11-15T16:05:15;4.22;;;2.97;;
29214;SDS011;16252;49.816;7.964;2022-11-15T16:07:40;4.63;;;3.00;;
29214;SDS011;16252;49.816;7.964;2022-11-15T16:12:43;3.67;;;2.58;;
29214;SDS011;16252;49.816;7.964;2022-11-15T16:15:09;3.38;;;2.67;;
29214;SDS011;16252;49.816;7.964;2022-11-15T16:17:35;4.70;;;3.33;;
29214;SDS011;16252;49.816;7.964;2022-11-15T16:20:03;4.50;;;3.20;;
29214;SDS011;16252;49.816;7.964;2022-11-15T16:22:29;4.78;;;3.25;;
29214;SDS011;16252;49.816;7.964;2022-11-15T16:24:55;3.90;;;2.55;;
29214;SDS011;16252;49.816;7.964;2022-11-15T16:27:20;2.83;;;2.63;;
29214;SDS011;16252;49.816;7.964;2022-11-15T16:29:47;4.57;;;3.20;;
29214;SDS011;16252;49.816;7.964;2022-11-15T16:32:13;5.88;;;3.00;;
29214;SDS011;16252;49.816;7.964;2022-11-15T16:34:39;5.25;;;3.15;;
29214;SDS011;16252;49.816;7.964;2022-11-15T16:37:05;4.80;;;3.30;;